sensor_id;sensor_type;location;lat;lon;timestamp;P1;durP1;ratioP1;P2;durP2;ratioP2
41061;SDS011;26812;42.662;23.352;2023-03-01T00:01:27;4.55;;;3.83;;
41061;SDS011;26812;42.662;23.352;2023-03-01T00:03:54;4.25;;;3.10;;
41061;SDS011;26812;42.662;23.352;2023-03-01T00:06:20;4.25;;;3.47;;
41061;SDS011;26812;42.662;23.352;2023-03-01T00:08:47;4.40;;;3.80;;
41061;SDS011;26812;42.662;23.352;2023-03-01T00:11:14;5.63;;;4.10;;
41061;SDS011;26812;42.662;23.352;2023-03-01T00:13:43;3.90;;;3.10;;
41061;SDS011;26812;42.662;23.352;2023-03-01T00:16:14;4.32;;;3.88;;
41061;SDS011;26812;42.662;23.352;2023-03-01T00:18:42;5.65;;;3.13;;
41061;SDS011;26812;42.662;23.352;2023-03-01T00:21:08;5.47;;;3.92;;
41061;SDS011;26812;42.662;23.352;2023-03-01T00:23:34;6.07;;;3.65;;
41061;SDS011;26812;42.662;23.352;2023-03-01T00:26:00;3.67;;;3.17;;
41061;SDS011;26812;42.662;23.352;2023-03-01T00:28:26;4.07;;;3.33;;
41061;SDS011;26812;42.662;23.352;2023-03-01T00:30:51;5.18;;;3.20;;
41061;SDS011;26812;42.662;23.352;2023-03-01T00:33:17;3.97;;;3.33;;
41061;SDS011;26812;42.662;23.352;2023-03-01T00:35:43;6.38;;;3.47;;
41061;SDS011;26812;42.662;23.352;2023-03-01T00:38:08;3.20;;;2.90;;
41061;SDS011;26812;42.662;23.352;2023-03-01T00:40:34;4.32;;;3.13;;
41061;SDS011;26812;42.662;23.352;2023-03-01T00:43:00;3.15;;;2.80;;
41061;SDS011;26812;42.662;23.352;2023-03-01T00:45:26;6.43;;;2.97;;
41061;SDS011;26812;42.662;23.352;2023-03-01T00:47:52;4.28;;;3.08;;
41061;SDS011;26812;42.662;23.352;2023-03-01T00:50:18;4.85;;;3.17;;
41061;SDS011;26812;42.662;23.352;2023-03-01T00:52:44;3.58;;;2.92;;
41061;SDS011;26812;42.662;23.352;2023-03-01T00:55:10;3.53;;;2.97;;
41061;SDS011;26812;42.662;23.352;2023-03-01T00:57:37;4.05;;;3.30;;
41061;SDS011;26812;42.662;23.352;2023-03-01T01:00:03;3.50;;;3.20;;
41061;SDS011;26812;42.662;23.352;2023-03-01T01:02:31;2.72;;;2.53;;
41061;SDS011;26812;42.662;23.352;2023-03-01T01:04:58;3.65;;;2.92;;
41061;SDS011;26812;42.662;23.352;2023-03-01T01:07:23;2.78;;;2.45;;
41061;SDS011;26812;42.662;23.352;2023-03-01T01:09:49;2.75;;;2.33;;
41061;SDS011;26812;42.662;23.352;2023-03-01T01:12:14;2.85;;;2.45;;
41061;SDS011;26812;42.662;23.352;2023-03-01T01:14:39;2.58;;;2.28;;
41061;SDS011;26812;42.662;23.352;2023-03-01T01:17:05;4.55;;;3.10;;
41061;SDS011;26812;42.662;23.352;2023-03-01T01:19:30;3.55;;;2.80;;
41061;SDS011;26812;42.662;23.352;2023-03-01T01:21:56;3.63;;;2.67;;
41061;SDS011;26812;42.662;23.352;2023-03-01T01:24:21;3.65;;;3.35;;
41061;SDS011;26812;42.662;23.352;2023-03-01T01:26:47;2.30;;;2.10;;
41061;SDS011;26812;42.662;23.352;2023-03-01T01:29:12;2.50;;;2.30;;
41061;SDS011;26812;42.662;23.352;2023-03-01T01:31:39;2.50;;;2.30;;
41061;SDS011;26812;42.662;23.352;2023-03-01T01:34:06;2.17;;;1.98;;
41061;SDS011;26812;42.662;23.352;2023-03-01T01:36:34;2.58;;;2.38;;
41061;SDS011;26812;42.662;23.352;2023-03-01T01:39:00;2.25;;;2.00;;
41061;SDS011;26812;42.662;23.352;2023-03-01T01:41:26;2.40;;;2.20;;
41061;SDS011;26812;42.662;23.352;2023-03-01T01:46:43;2.63;;;2.42;;
41061;SDS011;26812;42.662;23.352;2023-03-01T01:49:17;2.33;;;2.13;;
41061;SDS011;26812;42.662;23.352;2023-03-01T01:51:44;2.65;;;2.45;;
41061;SDS011;26812;42.662;23.352;2023-03-01T01:54:17;2.50;;;2.30;;
41061;SDS011;26812;42.662;23.352;2023-03-01T01:56:49;2.45;;;2.25;;
41061;SDS011;26812;42.662;23.352;2023-03-01T01:59:25;2.08;;;1.98;;
41061;SDS011;26812;42.662;23.352;2023-03-01T02:01:55;2.25;;;2.15;;
41061;SDS011;26812;42.662;23.352;2023-03-01T02:04:24;2.33;;;2.22;;
41061;SDS011;26812;42.662;23.352;2023-03-01T02:07:13;2.10;;;2.00;;
41061;SDS011;26812;42.662;23.352;2023-03-01T02:09:42;2.30;;;2.20;;
41061;SDS011;26812;42.662;23.352;2023-03-01T02:12:11;2.75;;;2.55;;
41061;SDS011;26812;42.662;23.352;2023-03-01T02:14:37;2.30;;;2.20;;
41061;SDS011;26812;42.662;23.352;2023-03-01T02:17:02;2.30;;;2.13;;
41061;SDS011;26812;42.662;23.352;2023-03-01T02:19:39;2.55;;;2.35;;
41061;SDS011;26812;42.662;23.352;2023-03-01T02:22:20;3.10;;;2.33;;
41061;SDS011;26812;42.662;23.352;2023-03-01T02:30:24;2.47;;;2.28;;
41061;SDS011;26812;42.662;23.352;2023-03-01T02:32:52;2.65;;;2.45;;
41061;SDS011;26812;42.662;23.352;2023-03-01T02:35:21;2.58;;;2.38;;
41061;SDS011;26812;42.662;23.352;2023-03-01T02:37:47;2.85;;;2.65;;
41061;SDS011;26812;42.662;23.352;2023-03-01T02:40:14;2.63;;;2.42;;
41061;SDS011;26812;42.662;23.352;2023-03-01T02:43:00;2.40;;;2.20;;
41061;SDS011;26812;42.662;23.352;2023-03-01T02:45:26;2.80;;;2.60;;
41061;SDS011;26812;42.662;23.352;2023-03-01T02:47:55;3.00;;;2.67;;
41061;SDS011;26812;42.662;23.352;2023-03-01T02:53:04;2.85;;;2.65;;
41061;SDS011;26812;42.662;23.352;2023-03-01T02:55:36;2.55;;;2.35;;
41061;SDS011;26812;42.662;23.352;2023-03-01T02:58:02;2.72;;;2.53;;
41061;SDS011;26812;42.662;23.352;2023-03-01T03:00:30;3.75;;;2.83;;
41061;SDS011;26812;42.662;23.352;2023-03-01T03:03:04;3.20;;;2.90;;
41061;SDS011;26812;42.662;23.352;2023-03-01T03:05:30;4.78;;;2.80;;
41061;SDS011;26812;42.662;23.352;2023-03-01T03:07:57;3.25;;;2.75;;
41061;SDS011;26812;42.662;23.352;2023-03-01T03:10:25;2.75;;;2.55;;
41061;SDS011;26812;42.662;23.352;2023-03-01T03:12:54;3.47;;;3.15;;
41061;SDS011;26812;42.662;23.352;2023-03-01T03:15:22;4.63;;;3.30;;
41061;SDS011;26812;42.662;23.352;2023-03-01T03:17:48;4.00;;;2.92;;
41061;SDS011;26812;42.662;23.352;2023-03-01T03:20:15;3.10;;;2.80;;
41061;SDS011;26812;42.662;23.352;2023-03-01T03:22:47;3.50;;;3.20;;
41061;SDS011;26812;42.662;23.352;2023-03-01T03:25:15;3.85;;;3.20;;
41061;SDS011;26812;42.662;23.352;2023-03-01T03:27:42;3.60;;;3.30;;
41061;SDS011;26812;42.662;23.352;2023-03-01T03:30:10;4.47;;;3.38;;
41061;SDS011;26812;42.662;23.352;2023-03-01T03:32:39;2.90;;;2.65;;
41061;SDS011;26812;42.662;23.352;2023-03-01T03:35:08;3.33;;;2.38;;
41061;SDS011;26812;42.662;23.352;2023-03-01T03:37:38;2.90;;;2.55;;
41061;SDS011;26812;42.662;23.352;2023-03-01T03:40:24;2.85;;;2.60;;
41061;SDS011;26812;42.662;23.352;2023-03-01T03:42:49;2.63;;;2.42;;
41061;SDS011;26812;42.662;23.352;2023-03-01T03:45:18;2.65;;;2.08;;
41061;SDS011;26812;42.662;23.352;2023-03-01T03:47:44;2.83;;;2.35;;
41061;SDS011;26812;42.662;23.352;2023-03-01T03:50:10;2.65;;;1.80;;
41061;SDS011;26812;42.662;23.352;2023-03-01T03:52:36;3.00;;;2.53;;
41061;SDS011;26812;42.662;23.352;2023-03-01T03:55:02;3.92;;;2.75;;
41061;SDS011;26812;42.662;23.352;2023-03-01T03:57:28;3.15;;;2.38;;
41061;SDS011;26812;42.662;23.352;2023-03-01T03:59:53;2.50;;;2.28;;
41061;SDS011;26812;42.662;23.352;2023-03-01T04:02:19;5.07;;;2.92;;
41061;SDS011;26812;42.662;23.352;2023-03-01T04:04:47;2.28;;;2.08;;
41061;SDS011;26812;42.662;23.352;2023-03-01T04:07:15;3.00;;;2.17;;
41061;SDS011;26812;42.662;23.352;2023-03-01T04:09:41;3.00;;;2.70;;
41061;SDS011;26812;42.662;23.352;2023-03-01T04:12:07;2.55;;;2.30;;
41061;SDS011;26812;42.662;23.352;2023-03-01T04:14:33;2.60;;;2.22;;
41061;SDS011;26812;42.662;23.352;2023-03-01T04:16:58;3.40;;;2.45;;
41061;SDS011;26812;42.662;23.352;2023-03-01T04:19:24;4.65;;;2.20;;
41061;SDS011;26812;42.662;23.352;2023-03-01T04:21:49;3.17;;;2.88;;
41061;SDS011;26812;42.662;23.352;2023-03-01T04:24:15;2.70;;;2.50;;
41061;SDS011;26812;42.662;23.352;2023-03-01T04:26:41;2.97;;;2.70;;
41061;SDS011;26812;42.662;23.352;2023-03-01T04:29:06;3.47;;;2.38;;
41061;SDS011;26812;42.662;23.352;2023-03-01T04:31:32;2.53;;;2.33;;
41061;SDS011;26812;42.662;23.352;2023-03-01T04:33:57;4.47;;;2.38;;
41061;SDS011;26812;42.662;23.352;2023-03-01T04:36:24;2.58;;;2.35;;
41061;SDS011;26812;42.662;23.352;2023-03-01T04:38:51;3.50;;;2.40;;
41061;SDS011;26812;42.662;23.352;2023-03-01T04:41:18;2.90;;;2.70;;
41061;SDS011;26812;42.662;23.352;2023-03-01T04:43:44;3.10;;;2.45;;
41061;SDS011;26812;42.662;23.352;2023-03-01T04:46:14;2.53;;;2.30;;
41061;SDS011;26812;42.662;23.352;2023-03-01T04:48:42;3.78;;;2.60;;
41061;SDS011;26812;42.662;23.352;2023-03-01T04:51:09;3.10;;;2.78;;
41061;SDS011;26812;42.662;23.352;2023-03-01T04:53:38;3.08;;;2.67;;
41061;SDS011;26812;42.662;23.352;2023-03-01T04:56:05;4.25;;;2.90;;
41061;SDS011;26812;42.662;23.352;2023-03-01T04:58:30;3.10;;;2.80;;
41061;SDS011;26812;42.662;23.352;2023-03-01T05:00:56;4.00;;;3.13;;
41061;SDS011;26812;42.662;23.352;2023-03-01T05:03:21;2.30;;;2.10;;
41061;SDS011;26812;42.662;23.352;2023-03-01T05:05:48;2.33;;;2.13;;
41061;SDS011;26812;42.662;23.352;2023-03-01T05:08:15;2.67;;;2.33;;
41061;SDS011;26812;42.662;23.352;2023-03-01T05:10:47;2.17;;;1.98;;
41061;SDS011;26812;42.662;23.352;2023-03-01T05:13:15;3.35;;;2.22;;
41061;SDS011;26812;42.662;23.352;2023-03-01T05:15:46;2.60;;;2.30;;
41061;SDS011;26812;42.662;23.352;2023-03-01T05:18:23;2.45;;;2.20;;
41061;SDS011;26812;42.662;23.352;2023-03-01T05:20:53;3.00;;;2.72;;
41061;SDS011;26812;42.662;23.352;2023-03-01T05:23:21;3.03;;;2.58;;
41061;SDS011;26812;42.662;23.352;2023-03-01T05:25:47;3.03;;;2.67;;
41061;SDS011;26812;42.662;23.352;2023-03-01T05:28:14;2.13;;;1.92;;
41061;SDS011;26812;42.662;23.352;2023-03-01T05:30:40;3.60;;;2.17;;
41061;SDS011;26812;42.662;23.352;2023-03-01T05:33:06;2.10;;;2.00;;
41061;SDS011;26812;42.662;23.352;2023-03-01T05:35:38;2.95;;;2.72;;
41061;SDS011;26812;42.662;23.352;2023-03-01T05:38:05;2.63;;;2.42;;
41061;SDS011;26812;42.662;23.352;2023-03-01T05:40:32;3.75;;;2.85;;
41061;SDS011;26812;42.662;23.352;2023-03-01T05:42:58;2.03;;;1.92;;
41061;SDS011;26812;42.662;23.352;2023-03-01T05:45:24;2.58;;;2.38;;
41061;SDS011;26812;42.662;23.352;2023-03-01T05:47:51;2.30;;;2.10;;
41061;SDS011;26812;42.662;23.352;2023-03-01T05:50:22;2.47;;;2.28;;
41061;SDS011;26812;42.662;23.352;2023-03-01T05:53:35;2.70;;;2.00;;
41061;SDS011;26812;42.662;23.352;2023-03-01T05:55:40;2.65;;;2.08;;
41061;SDS011;26812;42.662;23.352;2023-03-01T05:58:07;3.83;;;2.40;;
41061;SDS011;26812;42.662;23.352;2023-03-01T06:00:36;2.38;;;2.17;;
41061;SDS011;26812;42.662;23.352;2023-03-01T06:03:01;3.30;;;2.80;;
41061;SDS011;26812;42.662;23.352;2023-03-01T06:05:27;4.13;;;1.92;;
41061;SDS011;26812;42.662;23.352;2023-03-01T06:07:53;3.15;;;2.28;;
41061;SDS011;26812;42.662;23.352;2023-03-01T06:10:20;3.00;;;2.40;;
41061;SDS011;26812;42.662;23.352;2023-03-01T06:12:47;3.42;;;2.92;;
41061;SDS011;26812;42.662;23.352;2023-03-01T06:15:13;2.70;;;2.50;;
41061;SDS011;26812;42.662;23.352;2023-03-01T06:17:40;2.92;;;2.63;;
41061;SDS011;26812;42.662;23.352;2023-03-01T06:22:40;3.60;;;3.30;;
41061;SDS011;26812;42.662;23.352;2023-03-01T06:25:07;3.03;;;2.60;;
41061;SDS011;26812;42.662;23.352;2023-03-01T06:27:33;4.28;;;3.00;;
41061;SDS011;26812;42.662;23.352;2023-03-01T06:29:59;3.45;;;2.85;;
41061;SDS011;26812;42.662;23.352;2023-03-01T06:32:25;4.63;;;3.22;;
41061;SDS011;26812;42.662;23.352;2023-03-01T06:34:50;3.17;;;2.67;;
41061;SDS011;26812;42.662;23.352;2023-03-01T06:37:16;3.03;;;2.83;;
41061;SDS011;26812;42.662;23.352;2023-03-01T06:39:41;3.25;;;2.95;;
41061;SDS011;26812;42.662;23.352;2023-03-01T06:42:07;3.80;;;3.50;;
41061;SDS011;26812;42.662;23.352;2023-03-01T06:44:35;3.38;;;3.00;;
41061;SDS011;26812;42.662;23.352;2023-03-01T06:47:00;3.38;;;3.08;;
41061;SDS011;26812;42.662;23.352;2023-03-01T06:49:26;2.72;;;2.50;;
41061;SDS011;26812;42.662;23.352;2023-03-01T06:51:52;2.95;;;2.72;;
41061;SDS011;26812;42.662;23.352;2023-03-01T06:54:17;3.00;;;2.72;;
41061;SDS011;26812;42.662;23.352;2023-03-01T06:56:43;2.25;;;2.05;;
41061;SDS011;26812;42.662;23.352;2023-03-01T06:59:11;5.13;;;2.92;;
41061;SDS011;26812;42.662;23.352;2023-03-01T07:01:36;3.83;;;2.58;;
41061;SDS011;26812;42.662;23.352;2023-03-01T07:04:02;2.40;;;2.20;;
41061;SDS011;26812;42.662;23.352;2023-03-01T07:06:27;2.55;;;2.35;;
41061;SDS011;26812;42.662;23.352;2023-03-01T07:08:53;3.22;;;2.50;;
41061;SDS011;26812;42.662;23.352;2023-03-01T07:11:18;2.60;;;2.40;;
41061;SDS011;26812;42.662;23.352;2023-03-01T07:13:43;3.65;;;2.42;;
41061;SDS011;26812;42.662;23.352;2023-03-01T07:16:09;2.83;;;2.58;;
41061;SDS011;26812;42.662;23.352;2023-03-01T07:18:34;2.85;;;2.22;;
41061;SDS011;26812;42.662;23.352;2023-03-01T07:21:06;2.95;;;1.80;;
41061;SDS011;26812;42.662;23.352;2023-03-01T07:23:33;3.50;;;2.25;;
41061;SDS011;26812;42.662;23.352;2023-03-01T07:25:58;2.40;;;2.15;;
41061;SDS011;26812;42.662;23.352;2023-03-01T07:28:25;2.40;;;2.20;;
41061;SDS011;26812;42.662;23.352;2023-03-01T07:30:51;3.15;;;2.55;;
41061;SDS011;26812;42.662;23.352;2023-03-01T07:33:16;2.28;;;2.13;;
41061;SDS011;26812;42.662;23.352;2023-03-01T07:35:42;2.22;;;2.03;;
41061;SDS011;26812;42.662;23.352;2023-03-01T07:38:07;2.28;;;2.05;;
41061;SDS011;26812;42.662;23.352;2023-03-01T07:40:33;2.50;;;2.25;;
41061;SDS011;26812;42.662;23.352;2023-03-01T07:42:59;4.22;;;2.45;;
41061;SDS011;26812;42.662;23.352;2023-03-01T07:45:29;2.03;;;1.70;;
41061;SDS011;26812;42.662;23.352;2023-03-01T07:47:54;2.17;;;1.95;;
41061;SDS011;26812;42.662;23.352;2023-03-01T07:50:21;2.03;;;1.80;;
41061;SDS011;26812;42.662;23.352;2023-03-01T07:52:47;2.65;;;1.85;;
41061;SDS011;26812;42.662;23.352;2023-03-01T07:55:14;3.17;;;1.92;;
41061;SDS011;26812;42.662;23.352;2023-03-01T07:57:41;2.55;;;2.08;;
41061;SDS011;26812;42.662;23.352;2023-03-01T08:00:07;2.22;;;2.03;;
41061;SDS011;26812;42.662;23.352;2023-03-01T08:02:34;3.33;;;2.03;;
41061;SDS011;26812;42.662;23.352;2023-03-01T08:05:00;2.63;;;2.20;;
41061;SDS011;26812;42.662;23.352;2023-03-01T08:07:25;1.95;;;1.85;;
41061;SDS011;26812;42.662;23.352;2023-03-01T08:09:51;2.53;;;2.00;;
41061;SDS011;26812;42.662;23.352;2023-03-01T08:12:16;1.50;;;1.40;;
41061;SDS011;26812;42.662;23.352;2023-03-01T08:14:42;1.75;;;1.65;;
41061;SDS011;26812;42.662;23.352;2023-03-01T08:17:07;2.05;;;1.95;;
41061;SDS011;26812;42.662;23.352;2023-03-01T08:19:33;2.47;;;1.80;;
41061;SDS011;26812;42.662;23.352;2023-03-01T08:21:59;2.72;;;2.40;;
41061;SDS011;26812;42.662;23.352;2023-03-01T08:24:26;2.35;;;2.15;;
41061;SDS011;26812;42.662;23.352;2023-03-01T08:26:52;2.95;;;2.70;;
41061;SDS011;26812;42.662;23.352;2023-03-01T08:29:17;2.75;;;2.47;;
41061;SDS011;26812;42.662;23.352;2023-03-01T08:31:43;3.40;;;2.55;;
41061;SDS011;26812;42.662;23.352;2023-03-01T08:34:10;3.53;;;2.60;;
41061;SDS011;26812;42.662;23.352;2023-03-01T08:36:41;3.05;;;2.75;;
41061;SDS011;26812;42.662;23.352;2023-03-01T08:39:09;4.32;;;3.10;;
41061;SDS011;26812;42.662;23.352;2023-03-01T08:41:36;6.10;;;2.55;;
41061;SDS011;26812;42.662;23.352;2023-03-01T08:44:05;2.83;;;2.60;;
41061;SDS011;26812;42.662;23.352;2023-03-01T08:46:32;3.22;;;2.92;;
41061;SDS011;26812;42.662;23.352;2023-03-01T08:49:13;3.95;;;2.90;;
41061;SDS011;26812;42.662;23.352;2023-03-01T08:51:40;5.40;;;3.65;;
41061;SDS011;26812;42.662;23.352;2023-03-01T08:54:07;4.60;;;2.60;;
41061;SDS011;26812;42.662;23.352;2023-03-01T08:56:36;4.03;;;2.50;;
41061;SDS011;26812;42.662;23.352;2023-03-01T08:59:02;2.97;;;2.67;;
41061;SDS011;26812;42.662;23.352;2023-03-01T09:01:27;3.63;;;3.17;;
41061;SDS011;26812;42.662;23.352;2023-03-01T09:03:53;4.47;;;3.03;;
41061;SDS011;26812;42.662;23.352;2023-03-01T09:06:18;2.92;;;2.70;;
41061;SDS011;26812;42.662;23.352;2023-03-01T09:08:46;4.13;;;3.20;;
41061;SDS011;26812;42.662;23.352;2023-03-01T09:11:14;3.20;;;2.83;;
41061;SDS011;26812;42.662;23.352;2023-03-01T09:13:44;3.00;;;2.47;;
41061;SDS011;26812;42.662;23.352;2023-03-01T09:16:11;2.85;;;2.65;;
41061;SDS011;26812;42.662;23.352;2023-03-01T09:18:38;3.00;;;2.47;;
41061;SDS011;26812;42.662;23.352;2023-03-01T09:21:05;3.30;;;2.45;;
41061;SDS011;26812;42.662;23.352;2023-03-01T09:23:35;2.33;;;2.10;;
41061;SDS011;26812;42.662;23.352;2023-03-01T09:26:04;2.10;;;1.90;;
41061;SDS011;26812;42.662;23.352;2023-03-01T09:28:30;1.95;;;1.80;;
41061;SDS011;26812;42.662;23.352;2023-03-01T09:30:59;2.30;;;2.10;;
41061;SDS011;26812;42.662;23.352;2023-03-01T09:33:26;1.70;;;1.48;;
41061;SDS011;26812;42.662;23.352;2023-03-01T09:36:00;3.85;;;1.63;;
41061;SDS011;26812;42.662;23.352;2023-03-01T09:38:27;1.58;;;1.48;;
41061;SDS011;26812;42.662;23.352;2023-03-01T09:40:53;1.60;;;1.50;;
41061;SDS011;26812;42.662;23.352;2023-03-01T09:43:21;2.80;;;1.83;;
41061;SDS011;26812;42.662;23.352;2023-03-01T09:45:55;1.98;;;1.52;;
41061;SDS011;26812;42.662;23.352;2023-03-01T09:48:25;1.83;;;1.50;;
41061;SDS011;26812;42.662;23.352;2023-03-01T09:50:54;1.80;;;1.70;;
41061;SDS011;26812;42.662;23.352;2023-03-01T09:53:22;2.85;;;1.67;;
41061;SDS011;26812;42.662;23.352;2023-03-01T10:01:10;1.92;;;1.55;;
41061;SDS011;26812;42.662;23.352;2023-03-01T10:03:41;2.90;;;1.83;;
41061;SDS011;26812;42.662;23.352;2023-03-01T10:08:48;1.75;;;1.65;;
41061;SDS011;26812;42.662;23.352;2023-03-01T10:11:36;2.53;;;1.88;;
41061;SDS011;26812;42.662;23.352;2023-03-01T10:14:05;1.80;;;1.70;;
41061;SDS011;26812;42.662;23.352;2023-03-01T10:17:03;2.15;;;1.55;;
41061;SDS011;26812;42.662;23.352;2023-03-01T10:19:36;1.88;;;1.73;;
41061;SDS011;26812;42.662;23.352;2023-03-01T10:22:16;2.35;;;1.77;;
41061;SDS011;26812;42.662;23.352;2023-03-01T10:24:53;1.77;;;1.67;;
41061;SDS011;26812;42.662;23.352;2023-03-01T10:32:31;2.65;;;1.90;;
41061;SDS011;26812;42.662;23.352;2023-03-01T10:34:57;4.93;;;2.08;;
41061;SDS011;26812;42.662;23.352;2023-03-01T10:37:23;1.92;;;1.60;;
41061;SDS011;26812;42.662;23.352;2023-03-01T10:40:03;2.17;;;1.98;;
41061;SDS011;26812;42.662;23.352;2023-03-01T10:42:54;2.38;;;1.90;;
41061;SDS011;26812;42.662;23.352;2023-03-01T10:48:03;1.90;;;1.75;;
41061;SDS011;26812;42.662;23.352;2023-03-01T10:51:04;2.88;;;2.58;;
41061;SDS011;26812;42.662;23.352;2023-03-01T11:01:29;2.20;;;2.00;;
41061;SDS011;26812;42.662;23.352;2023-03-01T11:06:36;2.00;;;1.88;;
41061;SDS011;26812;42.662;23.352;2023-03-01T11:09:19;2.88;;;2.08;;
41061;SDS011;26812;42.662;23.352;2023-03-01T11:11:46;3.45;;;1.80;;
41061;SDS011;26812;42.662;23.352;2023-03-01T11:19:42;2.13;;;2.03;;
41061;SDS011;26812;42.662;23.352;2023-03-01T11:22:11;2.20;;;2.10;;
41061;SDS011;26812;42.662;23.352;2023-03-01T11:24:46;1.95;;;1.80;;
41061;SDS011;26812;42.662;23.352;2023-03-01T11:27:19;2.38;;;2.17;;
41061;SDS011;26812;42.662;23.352;2023-03-01T11:32:38;3.80;;;2.20;;
41061;SDS011;26812;42.662;23.352;2023-03-01T11:35:10;3.17;;;2.63;;
41061;SDS011;26812;42.662;23.352;2023-03-01T11:37:55;2.55;;;2.35;;
41061;SDS011;26812;42.662;23.352;2023-03-01T11:40:45;2.95;;;2.67;;
41061;SDS011;26812;42.662;23.352;2023-03-01T11:50:57;2.85;;;2.50;;
41061;SDS011;26812;42.662;23.352;2023-03-01T11:56:13;3.60;;;3.25;;
41061;SDS011;26812;42.662;23.352;2023-03-01T12:25:37;4.05;;;3.20;;
41061;SDS011;26812;42.662;23.352;2023-03-01T12:28:29;4.70;;;3.90;;
41061;SDS011;26812;42.662;23.352;2023-03-01T12:48:18;3.00;;;2.78;;
41061;SDS011;26812;42.662;23.352;2023-03-01T12:50:57;3.40;;;2.97;;
41061;SDS011;26812;42.662;23.352;2023-03-01T12:53:32;3.97;;;3.58;;
41061;SDS011;26812;42.662;23.352;2023-03-01T12:56:21;4.35;;;3.47;;
41061;SDS011;26812;42.662;23.352;2023-03-01T13:17:47;3.70;;;3.10;;
41061;SDS011;26812;42.662;23.352;2023-03-01T13:20:19;2.63;;;2.30;;
41061;SDS011;26812;42.662;23.352;2023-03-01T13:23:00;3.15;;;2.85;;
41061;SDS011;26812;42.662;23.352;2023-03-01T13:46:37;4.65;;;2.95;;
41061;SDS011;26812;42.662;23.352;2023-03-01T13:49:03;4.45;;;2.88;;
41061;SDS011;26812;42.662;23.352;2023-03-01T13:51:29;4.15;;;3.67;;
41061;SDS011;26812;42.662;23.352;2023-03-01T13:53:55;6.95;;;3.85;;
41061;SDS011;26812;42.662;23.352;2023-03-01T13:56:27;3.63;;;2.83;;
41061;SDS011;26812;42.662;23.352;2023-03-01T13:58:59;3.88;;;2.88;;
41061;SDS011;26812;42.662;23.352;2023-03-01T14:01:30;3.17;;;2.88;;
41061;SDS011;26812;42.662;23.352;2023-03-01T14:03:58;3.80;;;2.92;;
41061;SDS011;26812;42.662;23.352;2023-03-01T14:09:02;3.58;;;3.28;;
41061;SDS011;26812;42.662;23.352;2023-03-01T14:14:31;3.15;;;2.72;;
41061;SDS011;26812;42.662;23.352;2023-03-01T14:19:45;4.40;;;2.92;;
41061;SDS011;26812;42.662;23.352;2023-03-01T14:22:21;4.00;;;3.13;;
41061;SDS011;26812;42.662;23.352;2023-03-01T14:24:48;4.43;;;2.92;;
41061;SDS011;26812;42.662;23.352;2023-03-01T14:27:14;5.40;;;2.72;;
41061;SDS011;26812;42.662;23.352;2023-03-01T14:29:41;4.28;;;2.78;;
41061;SDS011;26812;42.662;23.352;2023-03-01T14:32:11;2.83;;;2.47;;
41061;SDS011;26812;42.662;23.352;2023-03-01T14:34:45;2.67;;;2.30;;
41061;SDS011;26812;42.662;23.352;2023-03-01T14:37:31;2.72;;;2.20;;
41061;SDS011;26812;42.662;23.352;2023-03-01T14:39:58;2.75;;;2.55;;
41061;SDS011;26812;42.662;23.352;2023-03-01T14:42:29;3.13;;;2.00;;
41061;SDS011;26812;42.662;23.352;2023-03-01T14:44:59;2.85;;;2.13;;
41061;SDS011;26812;42.662;23.352;2023-03-01T14:47:33;2.92;;;2.42;;
41061;SDS011;26812;42.662;23.352;2023-03-01T14:50:07;3.67;;;1.90;;
41061;SDS011;26812;42.662;23.352;2023-03-01T14:52:40;3.17;;;2.03;;
41061;SDS011;26812;42.662;23.352;2023-03-01T14:55:20;3.13;;;2.30;;
41061;SDS011;26812;42.662;23.352;2023-03-01T14:57:50;3.25;;;1.83;;
41061;SDS011;26812;42.662;23.352;2023-03-01T15:00:37;6.15;;;2.83;;
41061;SDS011;26812;42.662;23.352;2023-03-01T15:03:11;3.30;;;3.00;;
41061;SDS011;26812;42.662;23.352;2023-03-01T15:05:45;4.57;;;2.63;;
41061;SDS011;26812;42.662;23.352;2023-03-01T15:08:18;2.83;;;2.13;;
41061;SDS011;26812;42.662;23.352;2023-03-01T15:13:49;3.55;;;2.47;;
41061;SDS011;26812;42.662;23.352;2023-03-01T15:16:16;6.82;;;3.25;;
41061;SDS011;26812;42.662;23.352;2023-03-01T15:18:47;4.43;;;3.15;;
41061;SDS011;26812;42.662;23.352;2023-03-01T15:24:14;3.45;;;2.88;;
41061;SDS011;26812;42.662;23.352;2023-03-01T15:29:21;3.65;;;3.05;;
41061;SDS011;26812;42.662;23.352;2023-03-01T15:34:46;5.15;;;3.05;;
41061;SDS011;26812;42.662;23.352;2023-03-01T15:42:45;4.93;;;3.00;;
41061;SDS011;26812;42.662;23.352;2023-03-01T15:47:47;4.85;;;3.80;;
41061;SDS011;26812;42.662;23.352;2023-03-01T15:50:36;5.15;;;3.33;;
41061;SDS011;26812;42.662;23.352;2023-03-01T15:53:05;4.40;;;3.10;;
41061;SDS011;26812;42.662;23.352;2023-03-01T15:55:36;4.57;;;3.92;;
41061;SDS011;26812;42.662;23.352;2023-03-01T16:00:34;5.88;;;3.65;;
41061;SDS011;26812;42.662;23.352;2023-03-01T16:02:59;5.22;;;3.97;;
41061;SDS011;26812;42.662;23.352;2023-03-01T16:05:26;3.47;;;3.17;;
41061;SDS011;26812;42.662;23.352;2023-03-01T16:07:52;5.60;;;3.05;;
41061;SDS011;26812;42.662;23.352;2023-03-01T16:10:18;6.07;;;3.55;;
41061;SDS011;26812;42.662;23.352;2023-03-01T16:12:44;3.20;;;2.80;;
41061;SDS011;26812;42.662;23.352;2023-03-01T16:15:16;3.75;;;3.00;;
41061;SDS011;26812;42.662;23.352;2023-03-01T16:17:45;5.30;;;3.10;;
41061;SDS011;26812;42.662;23.352;2023-03-01T16:20:11;3.58;;;2.88;;
41061;SDS011;26812;42.662;23.352;2023-03-01T16:22:37;4.55;;;3.40;;
41061;SDS011;26812;42.662;23.352;2023-03-01T16:25:03;4.15;;;2.95;;
41061;SDS011;26812;42.662;23.352;2023-03-01T16:27:44;4.47;;;3.30;;
41061;SDS011;26812;42.662;23.352;2023-03-01T16:30:18;5.80;;;3.03;;
41061;SDS011;26812;42.662;23.352;2023-03-01T16:32:46;4.68;;;2.67;;
41061;SDS011;26812;42.662;23.352;2023-03-01T16:35:13;3.80;;;2.78;;
41061;SDS011;26812;42.662;23.352;2023-03-01T16:37:41;3.30;;;2.53;;
41061;SDS011;26812;42.662;23.352;2023-03-01T16:40:11;3.67;;;2.97;;
41061;SDS011;26812;42.662;23.352;2023-03-01T16:45:08;5.88;;;2.67;;
41061;SDS011;26812;42.662;23.352;2023-03-01T16:47:34;3.72;;;2.38;;
41061;SDS011;26812;42.662;23.352;2023-03-01T16:50:00;4.20;;;2.60;;
41061;SDS011;26812;42.662;23.352;2023-03-01T16:52:25;3.53;;;2.92;;
41061;SDS011;26812;42.662;23.352;2023-03-01T16:54:51;4.03;;;3.13;;
41061;SDS011;26812;42.662;23.352;2023-03-01T16:57:16;4.05;;;2.78;;
41061;SDS011;26812;42.662;23.352;2023-03-01T16:59:42;3.60;;;2.85;;
41061;SDS011;26812;42.662;23.352;2023-03-01T17:02:09;3.33;;;2.58;;
41061;SDS011;26812;42.662;23.352;2023-03-01T17:04:37;5.70;;;2.90;;
41061;SDS011;26812;42.662;23.352;2023-03-01T17:07:03;4.80;;;2.72;;
41061;SDS011;26812;42.662;23.352;2023-03-01T17:09:28;4.03;;;2.80;;
41061;SDS011;26812;42.662;23.352;2023-03-01T17:11:54;3.65;;;2.55;;
41061;SDS011;26812;42.662;23.352;2023-03-01T17:14:20;4.22;;;2.92;;
41061;SDS011;26812;42.662;23.352;2023-03-01T17:16:46;3.67;;;2.78;;
41061;SDS011;26812;42.662;23.352;2023-03-01T17:19:11;4.30;;;2.78;;
41061;SDS011;26812;42.662;23.352;2023-03-01T17:21:42;3.80;;;2.78;;
41061;SDS011;26812;42.662;23.352;2023-03-01T17:24:09;4.03;;;2.72;;
41061;SDS011;26812;42.662;23.352;2023-03-01T17:26:35;3.60;;;3.22;;
41061;SDS011;26812;42.662;23.352;2023-03-01T17:29:00;5.85;;;3.28;;
41061;SDS011;26812;42.662;23.352;2023-03-01T17:31:26;3.92;;;2.80;;
41061;SDS011;26812;42.662;23.352;2023-03-01T17:33:51;4.40;;;3.15;;
41061;SDS011;26812;42.662;23.352;2023-03-01T17:36:17;4.65;;;3.20;;
41061;SDS011;26812;42.662;23.352;2023-03-01T17:38:43;4.78;;;3.35;;